Decoded Metar for EPGD (GDANSK in POLAND) (IATA:GDN) | Meteo·Mobile Aviation Weather
aviador You're here:

EPGD Decoded Metar

GDANSK in POLAND
Report Time2019-07-16 00:00:00
UTC Time2019-07-16 00:07:15
Flight Rules vfr VFR
Wind250° at 05 kt
W.Decomp.*RWY 29: 3.5 kt HW 3.5 kt LCW
Visibility9999 m
Phenomena:N/A
Clouds:Overcast 035 Hf
Expected CloudBase > 1,600 ft AGL from Temp-Dew spread
Ceiling3,500 ft
Temp15°C (ISA +1)
Dew Point11°C (77% RH)
AAT13.5°C
QNH1011 hPa
Density Alt804 ft
Elevation453 ft
Report Wrong Elevation
Raw Report
METAR EPGD 160000Z 25005KT 9999 OVC035 15/11 Q1011 =

Extra information for EPGD:More info

Metar Taf Metar & Taf Last 4 Metars F.Rules Stats Wind Profile Meteogram Temp Stats Airport Information Weather charts Add Link Nearby VenuesMetar ALERT Operation Metar Decoded Social comments